Have a Safe July 4th! 

Flight Track Log - Related Links

Times and Time Zones

All times are in EDT time to prevent confusion due to time zone crossing. See the HPJ5 flight status page for this flight to view local times or setup timezone preferences in your user account.

Time Position Orientation Groundspeed Altitude Reporting Facility
EDT Latitude Longitude Course Direction KTS MPH feet Rate Location/Type
Tue 01:50:04 PM 26.1975 -80.1656 85° East 171 197 300  Level Miami Center
Tue 01:50:41 PM 26.2006 -80.1286 85° East 172 198 1,700 1,515 Climbing Miami Center
Tue 01:51:43 PM 26.1997 -80.0683 91° East 206 237 2,800 1,628 Climbing Miami Center
Tue 01:52:50 PM 26.2017 -79.9781 89° East 277 319 5,200 2,216 Climbing Miami Center
Tue 01:54:39 PM 26.2136 -79.8094 85° East 347 399 9,300 2,521 Climbing Miami Center
Tue 01:55:39 PM 26.2178 -79.6983 88° East 347 399 12,300 2,727 Climbing Miami Center
Tue 01:56:40 PM 26.2136 -79.5869 92° East 347 399 14,800 2,331 Climbing Miami Center
Tue 01:57:40 PM 26.1528 -79.4861 124° Southeast 355 409 17,000 2,118 Climbing Miami Center
Tue 01:58:39 PM 26.0900 -79.3831 124° Southeast 375 432 19,000 2,100 Climbing Miami Center
Tue 01:59:40 PM 25.9653 -79.3389 162° South 404 465 21,200 2,000 Climbing Miami Center
Tue 02:00:39 PM 25.8569 -79.3228 172° South 418 481 23,000 1,700 Climbing Miami Center
Tue 02:01:40 PM 25.7486 -79.3089 173° South 431 496 24,600 1,550 Climbing Miami Center
Tue 02:02:39 PM 25.6192 -79.2900 173° South 440 506 26,100 1,513 Climbing Miami Center
Tue 02:03:39 PM 25.4939 -79.2853 178° South 445 512 27,600 1,450 Climbing Miami Center
Tue 02:04:39 PM 25.3703 -79.3128 191° South 440 506 29,000 1,250 Climbing Miami Center
Tue 02:05:39 PM 25.2444 -79.3425 192° South 448 516 30,100 1,041 Climbing Miami Center
Tue 02:06:40 PM 25.1103 -79.3719 191° South 454 522 31,100 950 Climbing Miami Center
Tue 02:07:39 PM 24.9808 -79.3644 177° South 454 522 32,000 850 Climbing Miami Center
Tue 02:08:40 PM 24.8494 -79.3367 169° South 460 529 32,800 750 Climbing Miami Center
Tue 02:09:39 PM 24.7142 -79.3111 170° South 477 549 33,500 706 Climbing Miami Center
Tue 02:10:39 PM 24.5808 -79.2881 171° South 487 560 34,200 694 Climbing Miami Center
Tue 02:11:40 PM 24.4456 -79.2625 170° South 492 566 34,900 400 Climbing Miami Center
Tue 02:12:39 PM 24.3081 -79.2369 170° South 497 572 35,000 50 Climbing Miami Center
Tue 02:13:40 PM 24.1703 -79.2139 171° South 506 582 35,000  Level Miami Center
Tue 02:14:40 PM 24.0225 -79.1861 170° South 516 594 35,000  Level Miami Center
Tue 02:16:00 PM 23.8622 -79.1420 171° South  Level FlightAware Approximate
Tue 02:23:00 PM 22.9946 -78.9878 171° South  Level FlightAware Approximate
Tue 02:24:00 PM 22.8706 -78.9660 171° South  Level FlightAware Approximate
Tue 02:25:00 PM 22.7466 -78.9441 171° South  Level FlightAware Approximate
Tue 02:26:00 PM 22.6227 -78.9224 171° South  Level FlightAware Approximate
Tue 02:27:00 PM 22.4987 -78.9006 171° South  Level FlightAware Approximate
Tue 02:28:00 PM 22.3748 -78.8781 169° South  Level FlightAware Approximate
Tue 02:29:00 PM 22.2515 -78.8523 169° South  Level FlightAware Approximate
Tue 02:30:00 PM 22.1282 -78.8267 169° South  Level FlightAware Approximate
Tue 02:31:00 PM 22.0049 -78.8010 169° South  Level FlightAware Approximate
Tue 02:32:00 PM 21.8834 -78.7666 165° South  Level FlightAware Approximate
Tue 02:33:00 PM 21.7620 -78.7319 165° South  Level FlightAware Approximate
Tue 02:34:00 PM 21.6406 -78.6973 165° South  Level FlightAware Approximate
Tue 02:35:00 PM 21.5192 -78.6628 165° South  Level FlightAware Approximate
Tue 02:36:00 PM 21.3978 -78.6283 165° South  Level FlightAware Approximate
Tue 02:37:00 PM 21.2763 -78.5938 165° South  Level FlightAware Approximate
Tue 02:38:00 PM 21.1549 -78.5594 165° South  Level FlightAware Approximate
Tue 02:39:00 PM 21.0335 -78.5251 165° South  Level FlightAware Approximate
Tue 02:40:00 PM 20.9120 -78.4908 165° South  Level FlightAware Approximate
Tue 02:41:00 PM 20.7906 -78.4566 165° South  Level FlightAware Approximate
Tue 02:42:00 PM 20.6691 -78.4224 165° South  Level FlightAware Approximate
Tue 02:43:00 PM 20.5476 -78.3883 165° South  Level FlightAware Approximate
Tue 02:44:00 PM 20.4262 -78.3543 165° South  Level FlightAware Approximate
Tue 02:45:00 PM 20.3047 -78.3203 165° South  Level FlightAware Approximate
Tue 02:46:00 PM 20.1832 -78.2863 165° South  Level FlightAware Approximate
Tue 02:47:00 PM 20.0617 -78.2524 165° South  Level FlightAware Approximate
Tue 02:48:00 PM 19.9402 -78.2186 165° South  Level FlightAware Approximate
Tue 02:49:00 PM 19.8188 -78.1844 165° South  Level FlightAware Approximate
Tue 02:50:00 PM 19.6974 -78.1503 165° South  Level FlightAware Approximate
Tue 02:51:00 PM 19.5760 -78.1162 165° South  Level FlightAware Approximate
Tue 02:52:00 PM 19.4545 -78.0822 165° South  Level FlightAware Approximate
Tue 02:53:00 PM 19.3331 -78.0482 165° South  Level FlightAware Approximate
Tue 02:54:00 PM 19.2117 -78.0143 165° South  Level FlightAware Approximate
Tue 02:55:00 PM 19.0902 -77.9804 165° South  Level FlightAware Approximate
Tue 02:56:00 PM 18.9688 -77.9465 165° South  Level FlightAware Approximate
Tue 02:57:00 PM 18.8473 -77.9128 165° South  Level FlightAware Approximate
Tue 02:58:00 PM 18.7258 -77.8790 165° South  Level FlightAware Approximate
Tue 02:59:00 PM 18.6044 -77.8454 165° South  Level FlightAware Approximate
Tue 03:00:00 PM 18.4829 -77.8117 165° South  Level FlightAware Approximate
Tue 03:01:00 PM 18.3614 -77.7781 165° South  Level FlightAware Approximate
Tue 03:02:00 PM 18.2399 -77.7446 165° South  Level FlightAware Approximate
Tue 03:03:00 PM 18.1184 -77.7111 165° South  Level FlightAware Approximate
Tue 03:04:00 PM 17.9969 -77.6776 165° South  Level FlightAware Approximate
Tue 03:05:00 PM 17.8754 -77.6442 165° South  Level FlightAware Approximate
Tue 03:06:00 PM 17.7539 -77.6109 165° South  Level FlightAware Approximate
Tue 03:07:00 PM 17.6324 -77.5776 165° South  Level FlightAware Approximate
Tue 03:08:00 PM 17.5109 -77.5443 165° South  Level FlightAware Approximate
Tue 03:09:00 PM 17.3893 -77.5111 165° South  Level FlightAware Approximate
Tue 03:10:00 PM 17.2678 -77.4779 165° South  Level FlightAware Approximate
Tue 03:11:00 PM 17.1463 -77.4448 165° South  Level FlightAware Approximate
Tue 03:12:00 PM 17.0247 -77.4117 165° South  Level FlightAware Approximate
Tue 03:13:00 PM 16.9032 -77.3786 165° South  Level FlightAware Approximate
Tue 03:14:00 PM 16.7816 -77.3456 165° South  Level FlightAware Approximate
Tue 03:15:00 PM 16.6601 -77.3127 165° South  Level FlightAware Approximate
Tue 03:16:00 PM 16.5385 -77.2797 165° South  Level FlightAware Approximate
Tue 03:17:00 PM 16.4169 -77.2468 165° South  Level FlightAware Approximate
Tue 03:18:00 PM 16.2953 -77.2140 165° South  Level FlightAware Approximate
Tue 03:19:00 PM 16.1738 -77.1812 165° South  Level FlightAware Approximate
Tue 03:20:00 PM 16.0522 -77.1485 165° South  Level FlightAware Approximate
Tue 03:21:00 PM 15.9306 -77.1157 165° South  Level FlightAware Approximate
Tue 03:22:00 PM 15.8090 -77.0831 166° South  Level FlightAware Approximate
Tue 03:23:00 PM 15.6874 -77.0504 166° South  Level FlightAware Approximate
Tue 03:24:00 PM 15.5658 -77.0178 166° South  Level FlightAware Approximate
Tue 03:25:00 PM 15.4442 -76.9853 166° South  Level FlightAware Approximate
Tue 03:26:00 PM 15.3225 -76.9527 166° South  Level FlightAware Approximate
Tue 03:27:00 PM 15.2009 -76.9202 166° South  Level FlightAware Approximate
Tue 03:28:00 PM 15.0793 -76.8878 166° South  Level FlightAware Approximate
Tue 03:29:00 PM 14.9571 -76.8581 169° South  Level FlightAware Approximate
Tue 03:30:00 PM 14.8337 -76.8336 169° South  Level FlightAware Approximate
Tue 03:31:00 PM 14.7104 -76.8091 169° South  Level FlightAware Approximate
Tue 03:32:00 PM 14.5871 -76.7847 169° South  Level FlightAware Approximate
Tue 03:33:00 PM 14.4637 -76.7602 169° South  Level FlightAware Approximate
Tue 03:34:00 PM 14.3404 -76.7358 169° South  Level FlightAware Approximate
Tue 03:35:00 PM 14.2170 -76.7114 169° South  Level FlightAware Approximate
Tue 03:36:00 PM 14.0937 -76.6871 169° South  Level FlightAware Approximate
Tue 03:37:00 PM 13.9703 -76.6628 169° South  Level FlightAware Approximate
Tue 03:38:00 PM 13.8469 -76.6385 169° South  Level FlightAware Approximate
Tue 03:39:00 PM 13.7236 -76.6142 169° South  Level FlightAware Approximate
Tue 03:40:00 PM 13.6002 -76.5899 169° South  Level FlightAware Approximate
Tue 03:41:00 PM 13.4769 -76.5655 169° South  Level FlightAware Approximate
Tue 03:42:00 PM 13.3536 -76.5410 169° South  Level FlightAware Approximate
Tue 03:43:00 PM 13.2303 -76.5165 169° South  Level FlightAware Approximate
Tue 03:44:00 PM 13.1069 -76.4921 169° South  Level FlightAware Approximate
Tue 03:45:00 PM 12.9836 -76.4677 169° South  Level FlightAware Approximate
Tue 03:46:00 PM 12.8603 -76.4433 169° South  Level FlightAware Approximate
Tue 03:47:00 PM 12.7370 -76.4189 169° South  Level FlightAware Approximate
Tue 03:48:00 PM 12.6137 -76.3946 169° South  Level FlightAware Approximate
Tue 03:49:00 PM 12.4903 -76.3703 169° South  Level FlightAware Approximate
Tue 03:50:00 PM 12.3670 -76.3460 169° South  Level FlightAware Approximate
Tue 03:51:00 PM 12.2437 -76.3217 169° South  Level FlightAware Approximate
Tue 03:52:00 PM 12.1203 -76.2973 169° South  Level FlightAware Approximate
Tue 03:53:00 PM 11.9972 -76.2721 169° South  Level FlightAware Approximate
Tue 03:54:00 PM 11.8741 -76.2470 169° South  Level FlightAware Approximate
Tue 03:55:00 PM 11.7509 -76.2218 169° South  Level FlightAware Approximate
Tue 03:56:00 PM 11.6277 -76.1967 169° South  Level FlightAware Approximate
Tue 03:57:00 PM 11.5046 -76.1716 169° South  Level FlightAware Approximate
Tue 03:58:00 PM 11.3814 -76.1465 169° South  Level FlightAware Approximate
Tue 03:59:00 PM 11.2582 -76.1215 169° South  Level FlightAware Approximate
Tue 04:00:00 PM 11.1351 -76.0964 169° South  Level FlightAware Approximate
Tue 04:01:00 PM 11.0119 -76.0714 169° South  Level FlightAware Approximate
Tue 04:02:00 PM 10.8887 -76.0464 169° South  Level FlightAware Approximate
Tue 04:03:00 PM 10.7656 -76.0214 169° South  Level FlightAware Approximate
Tue 04:04:00 PM 10.6424 -75.9965 169° South  Level FlightAware Approximate
Tue 04:05:00 PM 10.5192 -75.9715 169° South  Level FlightAware Approximate
Tue 04:06:00 PM 10.3960 -75.9466 169° South  Level FlightAware Approximate
Tue 04:07:00 PM 10.2728 -75.9217 169° South  Level FlightAware Approximate
Tue 04:08:00 PM 10.1497 -75.8969 169° South  Level FlightAware Approximate
Tue 04:09:00 PM 10.0265 -75.8720 169° South  Level FlightAware Approximate
Tue 04:10:00 PM 9.9033 -75.8473 169° South  Level FlightAware Approximate
Tue 04:11:00 PM 9.7801 -75.8226 169° South  Level FlightAware Approximate
Tue 04:12:00 PM 9.6568 -75.7979 169° South  Level FlightAware Approximate
Tue 04:13:00 PM 9.5336 -75.7732 169° South  Level FlightAware Approximate
Tue 04:14:00 PM 9.4104 -75.7486 169° South  Level FlightAware Approximate
Tue 04:15:00 PM 9.2872 -75.7240 169° South  Level FlightAware Approximate
Tue 04:16:00 PM 9.1640 -75.6993 169° South  Level FlightAware Approximate
Tue 04:17:00 PM 9.0407 -75.6748 169° South  Level FlightAware Approximate
Tue 04:18:00 PM 8.9175 -75.6502 169° South  Level FlightAware Approximate
Tue 04:19:00 PM 8.7940 -75.6270 169° South  Level FlightAware Approximate
Tue 04:20:00 PM 8.6706 -75.6038 169° South  Level FlightAware Approximate
Tue 04:21:00 PM 8.5471 -75.5806 169° South  Level FlightAware Approximate
Tue 04:22:00 PM 8.4236 -75.5574 169° South  Level FlightAware Approximate
Tue 04:23:00 PM 8.3001 -75.5343 169° South  Level FlightAware Approximate
Tue 04:24:00 PM 8.1766 -75.5111 169° South  Level FlightAware Approximate
Tue 04:25:00 PM 8.0531 -75.4880 169° South  Level FlightAware Approximate
Tue 04:26:00 PM 7.9296 -75.4649 169° South  Level FlightAware Approximate
Tue 04:27:00 PM 7.8062 -75.4413 169° South  Level FlightAware Approximate
Tue 04:28:00 PM 7.6830 -75.4169 169° South  Level FlightAware Approximate
Tue 04:29:00 PM 7.5597 -75.3925 169° South  Level FlightAware Approximate
Tue 04:30:00 PM 7.4365 -75.3681 169° South  Level FlightAware Approximate
Tue 04:31:00 PM 7.3133 -75.3437 169° South  Level FlightAware Approximate
Tue 04:32:00 PM 7.1900 -75.3193 169° South  Level FlightAware Approximate
Tue 04:33:00 PM 7.0668 -75.2950 169° South  Level FlightAware Approximate
Tue 04:34:00 PM 6.9435 -75.2706 169° South  Level FlightAware Approximate
Tue 04:35:00 PM 6.8203 -75.2463 169° South  Level FlightAware Approximate
Tue 04:36:00 PM 6.6970 -75.2219 169° South  Level FlightAware Approximate
Tue 04:37:00 PM 6.5738 -75.1976 169° South  Level FlightAware Approximate
Tue 04:38:00 PM 6.4505 -75.1733 169° South  Level FlightAware Approximate
Tue 04:39:00 PM 6.3273 -75.1488 169° South  Level FlightAware Approximate
Tue 04:40:00 PM 6.2042 -75.1242 169° South  Level FlightAware Approximate
Tue 04:41:00 PM 6.0810 -75.0994 166° South  Level FlightAware Approximate
Tue 04:42:00 PM 5.9581 -75.0736 171° South  Level FlightAware Approximate
Tue 04:43:00 PM 5.8351 -75.0485 168° South  Level FlightAware Approximate
Tue 04:44:00 PM 5.7122 -75.0224 169° South  Level FlightAware Approximate
Tue 04:45:00 PM 5.5890 -74.9978 169° South  Level FlightAware Approximate
Tue 04:46:00 PM 5.4660 -74.9727 168° South  Level FlightAware Approximate
Tue 04:47:00 PM 5.3431 -74.9468 168° South  Level FlightAware Approximate
Tue 04:48:00 PM 5.2201 -74.9209 168° South  Level FlightAware Approximate
Tue 04:49:00 PM 5.1416 -74.8290 124° Southeast  Level FlightAware Approximate
Tue 04:50:00 PM 5.0717 -74.7242 124° Southeast  Level FlightAware Approximate
Tue 04:51:00 PM 5.0029 -74.6188 123° Southeast  Level FlightAware Approximate
Tue 04:52:00 PM 4.9353 -74.5126 123° Southeast  Level FlightAware Approximate
Tue 04:53:00 PM 4.8683 -74.4059 122° Southeast  Level FlightAware Approximate
Tue 04:54:00 PM 4.7965 -74.3031 124° Southeast  Level FlightAware Approximate
Tue 04:55:00 PM 4.7324 -74.1981 117° Southeast  Level FlightAware Approximate
Tue 04:56:00 PM 4.7016 -74.1469 117° Southeast  Level Estimated
Tue 04:57:00 PM 4.7016 -74.1469 117° Southeast  Level Estimated
Tue 04:58:00 PM 4.7016 -74.1469 117° Southeast  Level Estimated
Tue 04:59:00 PM 4.7016 -74.1469 117° Southeast  Level Estimated
Tue 05:00:00 PM 4.7016 -74.1469 117° Southeast  Level Estimated
Tue 05:01:00 PM 4.7016 -74.1469 117° Southeast  Level Estimated
Tue 05:02:00 PM 4.7016 -74.1469 117° Southeast  Level Estimated
Tue 05:03:00 PM 4.7016 -74.1469 117° Southeast  Level Estimated
Tue 05:04:00 PM 4.7016 -74.1469 117° Southeast  Level Estimated
Tue 05:05:00 PM 4.7016 -74.1469 117° Southeast  Level Estimated
Tue 05:06:00 PM 4.7016 -74.1469 117° Southeast  Level Estimated
Tue 05:07:00 PM 4.7016 -74.1469 117° Southeast  Level Estimated
Tue 05:08:00 PM 4.7016 -74.1469 117° Southeast  Level Estimated
Tue 05:09:00 PM 4.7016 -74.1469 117° Southeast  Level Estimated

Login

Don't have an account? Register now (free) for customized features, flight alerts, and more!